sensor_id;sensor_type;location;lat;lon;timestamp;pressure;altitude;pressure_sealevel;temperature;humidity
8334;BME280;4204;43.004;23.052;2023-08-08T00:01:15;93742.38;;;18.07;100.00
8334;BME280;4204;43.004;23.052;2023-08-08T00:03:43;93740.94;;;18.13;100.00
8334;BME280;4204;43.004;23.052;2023-08-08T00:06:11;93742.88;;;18.12;100.00
8334;BME280;4204;43.004;23.052;2023-08-08T00:08:39;93753.31;;;18.17;100.00
8334;BME280;4204;43.004;23.052;2023-08-08T00:11:09;93741.47;;;18.22;100.00
8334;BME280;4204;43.004;23.052;2023-08-08T00:13:36;93740.78;;;18.02;100.00
8334;BME280;4204;43.004;23.052;2023-08-08T00:16:04;93736.50;;;17.98;100.00
8334;BME280;4204;43.004;23.052;2023-08-08T00:18:32;93745.69;;;17.97;100.00
8334;BME280;4204;43.004;23.052;2023-08-08T00:21:00;93742.59;;;17.95;100.00
8334;BME280;4204;43.004;23.052;2023-08-08T00:23:28;93739.09;;;17.94;100.00
8334;BME280;4204;43.004;23.052;2023-08-08T00:25:55;93738.41;;;17.97;100.00
8334;BME280;4204;43.004;23.052;2023-08-08T00:28:24;93736.84;;;17.96;100.00
8334;BME280;4204;43.004;23.052;2023-08-08T00:30:53;93753.16;;;17.84;100.00
8334;BME280;4204;43.004;23.052;2023-08-08T00:33:20;93755.81;;;17.81;100.00
8334;BME280;4204;43.004;23.052;2023-08-08T00:35:48;93753.53;;;17.83;100.00
8334;BME280;4204;43.004;23.052;2023-08-08T00:38:16;93761.56;;;17.79;100.00
8334;BME280;4204;43.004;23.052;2023-08-08T00:40:44;93774.44;;;17.70;100.00
8334;BME280;4204;43.004;23.052;2023-08-08T00:43:12;93776.53;;;17.57;100.00
8334;BME280;4204;43.004;23.052;2023-08-08T00:45:42;93776.91;;;17.56;100.00
8334;BME280;4204;43.004;23.052;2023-08-08T00:48:10;93776.06;;;17.52;100.00
8334;BME280;4204;43.004;23.052;2023-08-08T00:50:43;93784.75;;;17.64;100.00
8334;BME280;4204;43.004;23.052;2023-08-08T00:53:11;93770.44;;;17.60;100.00
8334;BME280;4204;43.004;23.052;2023-08-08T00:55:39;93763.56;;;17.63;100.00
8334;BME280;4204;43.004;23.052;2023-08-08T00:58:07;93766.63;;;17.61;100.00
8334;BME280;4204;43.004;23.052;2023-08-08T01:00:36;93769.25;;;17.58;100.00
8334;BME280;4204;43.004;23.052;2023-08-08T01:03:06;93774.22;;;17.56;100.00
8334;BME280;4204;43.004;23.052;2023-08-08T01:05:38;93773.91;;;17.61;100.00
8334;BME280;4204;43.004;23.052;2023-08-08T01:08:09;93776.84;;;17.52;100.00
8334;BME280;4204;43.004;23.052;2023-08-08T01:10:39;93782.47;;;17.47;100.00
8334;BME280;4204;43.004;23.052;2023-08-08T01:13:12;93784.03;;;17.48;100.00
8334;BME280;4204;43.004;23.052;2023-08-08T01:15:43;93788.06;;;17.39;100.00
8334;BME280;4204;43.004;23.052;2023-08-08T01:18:14;93781.63;;;17.43;100.00
8334;BME280;4204;43.004;23.052;2023-08-08T01:20:43;93790.28;;;17.33;100.00
8334;BME280;4204;43.004;23.052;2023-08-08T01:23:17;93795.75;;;17.40;100.00
8334;BME280;4204;43.004;23.052;2023-08-08T01:25:48;93786.81;;;17.33;100.00
8334;BME280;4204;43.004;23.052;2023-08-08T01:28:20;93782.47;;;17.28;100.00
8334;BME280;4204;43.004;23.052;2023-08-08T01:30:48;93781.16;;;17.38;100.00
8334;BME280;4204;43.004;23.052;2023-08-08T01:33:15;93786.94;;;17.40;100.00
8334;BME280;4204;43.004;23.052;2023-08-08T01:35:46;93790.34;;;17.37;100.00
8334;BME280;4204;43.004;23.052;2023-08-08T01:38:20;93797.28;;;17.19;100.00
8334;BME280;4204;43.004;23.052;2023-08-08T01:40:52;93800.31;;;17.17;100.00
8334;BME280;4204;43.004;23.052;2023-08-08T01:43:23;93809.50;;;17.16;100.00
8334;BME280;4204;43.004;23.052;2023-08-08T01:45:52;93811.19;;;17.05;100.00
8334;BME280;4204;43.004;23.052;2023-08-08T01:48:21;93815.16;;;16.92;100.00
8334;BME280;4204;43.004;23.052;2023-08-08T01:50:49;93811.41;;;16.96;100.00
8334;BME280;4204;43.004;23.052;2023-08-08T01:53:17;93803.00;;;16.98;100.00
8334;BME280;4204;43.004;23.052;2023-08-08T01:55:45;93810.22;;;16.94;100.00
8334;BME280;4204;43.004;23.052;2023-08-08T01:58:14;93826.78;;;16.80;100.00
8334;BME280;4204;43.004;23.052;2023-08-08T02:00:41;93827.75;;;16.72;100.00
8334;BME280;4204;43.004;23.052;2023-08-08T02:03:11;93833.06;;;16.53;100.00
8334;BME280;4204;43.004;23.052;2023-08-08T02:05:38;93825.44;;;16.55;100.00
8334;BME280;4204;43.004;23.052;2023-08-08T02:08:06;93817.13;;;16.60;100.00
8334;BME280;4204;43.004;23.052;2023-08-08T02:10:35;93811.16;;;16.67;100.00
8334;BME280;4204;43.004;23.052;2023-08-08T02:13:03;93812.78;;;16.71;100.00
8334;BME280;4204;43.004;23.052;2023-08-08T02:15:32;93809.13;;;16.79;100.00
8334;BME280;4204;43.004;23.052;2023-08-08T02:18:00;93806.81;;;16.78;100.00
8334;BME280;4204;43.004;23.052;2023-08-08T02:20:29;93811.88;;;16.83;100.00
8334;BME280;4204;43.004;23.052;2023-08-08T02:22:56;93794.97;;;16.82;100.00
8334;BME280;4204;43.004;23.052;2023-08-08T02:25:24;93800.66;;;16.77;100.00
8334;BME280;4204;43.004;23.052;2023-08-08T02:27:52;93813.56;;;16.72;100.00
8334;BME280;4204;43.004;23.052;2023-08-08T02:30:19;93827.41;;;16.74;100.00
8334;BME280;4204;43.004;23.052;2023-08-08T02:32:48;93817.63;;;16.81;100.00
8334;BME280;4204;43.004;23.052;2023-08-08T02:35:18;93826.94;;;16.87;100.00
8334;BME280;4204;43.004;23.052;2023-08-08T02:37:46;93818.97;;;16.91;100.00
8334;BME280;4204;43.004;23.052;2023-08-08T02:40:13;93817.41;;;16.90;100.00
8334;BME280;4204;43.004;23.052;2023-08-08T02:42:41;93822.38;;;16.88;100.00
8334;BME280;4204;43.004;23.052;2023-08-08T02:45:09;93834.16;;;16.83;100.00
8334;BME280;4204;43.004;23.052;2023-08-08T02:47:37;93834.22;;;16.87;100.00
8334;BME280;4204;43.004;23.052;2023-08-08T02:50:07;93832.19;;;16.99;100.00
8334;BME280;4204;43.004;23.052;2023-08-08T02:52:34;93840.97;;;16.96;100.00
8334;BME280;4204;43.004;23.052;2023-08-08T02:55:03;93846.34;;;16.96;100.00
8334;BME280;4204;43.004;23.052;2023-08-08T02:57:31;93842.03;;;17.11;100.00
8334;BME280;4204;43.004;23.052;2023-08-08T02:59:59;93850.53;;;17.13;100.00
8334;BME280;4204;43.004;23.052;2023-08-08T03:02:31;93851.25;;;17.10;100.00
8334;BME280;4204;43.004;23.052;2023-08-08T03:04:59;93850.19;;;17.15;100.00
8334;BME280;4204;43.004;23.052;2023-08-08T03:07:28;93849.19;;;17.23;100.00
8334;BME280;4204;43.004;23.052;2023-08-08T03:09:56;93839.13;;;17.20;100.00
8334;BME280;4204;43.004;23.052;2023-08-08T03:12:23;93842.97;;;17.19;100.00
8334;BME280;4204;43.004;23.052;2023-08-08T03:14:53;93845.16;;;17.13;100.00
8334;BME280;4204;43.004;23.052;2023-08-08T03:17:22;93854.34;;;17.12;100.00
8334;BME280;4204;43.004;23.052;2023-08-08T03:19:50;93850.44;;;17.10;100.00
8334;BME280;4204;43.004;23.052;2023-08-08T03:22:18;93848.53;;;17.10;100.00
8334;BME280;4204;43.004;23.052;2023-08-08T03:24:47;93853.00;;;17.22;100.00
8334;BME280;4204;43.004;23.052;2023-08-08T03:27:15;93857.09;;;17.16;100.00
8334;BME280;4204;43.004;23.052;2023-08-08T03:29:44;93854.41;;;17.16;100.00
8334;BME280;4204;43.004;23.052;2023-08-08T03:32:12;93858.75;;;17.20;100.00
8334;BME280;4204;43.004;23.052;2023-08-08T03:34:40;93850.75;;;17.24;100.00
8334;BME280;4204;43.004;23.052;2023-08-08T03:37:07;93856.06;;;17.20;100.00
8334;BME280;4204;43.004;23.052;2023-08-08T03:39:35;93857.63;;;17.21;100.00
8334;BME280;4204;43.004;23.052;2023-08-08T03:42:05;93853.72;;;17.19;100.00
8334;BME280;4204;43.004;23.052;2023-08-08T03:44:33;93858.03;;;17.04;100.00
8334;BME280;4204;43.004;23.052;2023-08-08T03:47:00;93880.94;;;16.82;100.00
8334;BME280;4204;43.004;23.052;2023-08-08T03:49:28;93878.66;;;16.65;100.00
8334;BME280;4204;43.004;23.052;2023-08-08T03:51:56;93871.19;;;16.59;100.00
8334;BME280;4204;43.004;23.052;2023-08-08T03:54:24;93871.72;;;16.64;100.00
8334;BME280;4204;43.004;23.052;2023-08-08T03:56:52;93875.69;;;16.70;100.00
8334;BME280;4204;43.004;23.052;2023-08-08T03:59:22;93893.00;;;16.73;100.00
8334;BME280;4204;43.004;23.052;2023-08-08T04:01:50;93900.88;;;16.66;100.00
8334;BME280;4204;43.004;23.052;2023-08-08T04:04:17;93909.59;;;16.59;100.00
8334;BME280;4204;43.004;23.052;2023-08-08T04:06:45;93910.94;;;16.69;100.00
8334;BME280;4204;43.004;23.052;2023-08-08T04:09:13;93904.53;;;16.73;100.00
8334;BME280;4204;43.004;23.052;2023-08-08T04:11:40;93924.22;;;16.77;100.00
8334;BME280;4204;43.004;23.052;2023-08-08T04:14:08;93922.31;;;16.78;100.00
8334;BME280;4204;43.004;23.052;2023-08-08T04:16:38;93910.06;;;16.96;100.00
8334;BME280;4204;43.004;23.052;2023-08-08T04:19:06;93891.25;;;16.96;100.00
8334;BME280;4204;43.004;23.052;2023-08-08T04:21:34;93879.28;;;16.93;100.00
8334;BME280;4204;43.004;23.052;2023-08-08T04:24:02;93880.06;;;16.94;100.00
8334;BME280;4204;43.004;23.052;2023-08-08T04:26:30;93884.59;;;16.90;100.00
8334;BME280;4204;43.004;23.052;2023-08-08T04:28:57;93886.41;;;16.86;100.00
8334;BME280;4204;43.004;23.052;2023-08-08T04:31:25;93890.06;;;16.78;100.00
8334;BME280;4204;43.004;23.052;2023-08-08T04:33:54;93880.44;;;16.77;100.00
8334;BME280;4204;43.004;23.052;2023-08-08T04:36:26;93874.28;;;16.76;100.00
8334;BME280;4204;43.004;23.052;2023-08-08T04:38:54;93859.88;;;16.84;100.00
8334;BME280;4204;43.004;23.052;2023-08-08T04:41:21;93876.34;;;16.83;100.00
8334;BME280;4204;43.004;23.052;2023-08-08T04:43:49;93896.66;;;16.65;100.00
8334;BME280;4204;43.004;23.052;2023-08-08T04:46:17;93908.00;;;16.43;100.00
8334;BME280;4204;43.004;23.052;2023-08-08T04:48:45;93906.50;;;16.30;100.00
8334;BME280;4204;43.004;23.052;2023-08-08T04:51:14;93915.50;;;16.37;100.00
8334;BME280;4204;43.004;23.052;2023-08-08T04:53:41;93911.09;;;16.13;100.00
8334;BME280;4204;43.004;23.052;2023-08-08T04:56:09;93930.41;;;16.19;100.00
8334;BME280;4204;43.004;23.052;2023-08-08T04:58:37;93941.03;;;16.15;100.00
8334;BME280;4204;43.004;23.052;2023-08-08T05:01:04;93936.53;;;16.19;100.00
8334;BME280;4204;43.004;23.052;2023-08-08T05:03:35;93947.00;;;16.25;100.00
8334;BME280;4204;43.004;23.052;2023-08-08T05:06:03;93960.78;;;16.23;100.00
8334;BME280;4204;43.004;23.052;2023-08-08T05:08:32;93970.22;;;16.33;100.00
8334;BME280;4204;43.004;23.052;2023-08-08T05:10:59;93975.88;;;16.28;100.00
8334;BME280;4204;43.004;23.052;2023-08-08T05:13:27;93980.38;;;16.39;100.00
8334;BME280;4204;43.004;23.052;2023-08-08T05:15:55;93980.22;;;16.32;100.00
8334;BME280;4204;43.004;23.052;2023-08-08T05:18:23;93983.31;;;16.34;100.00
8334;BME280;4204;43.004;23.052;2023-08-08T05:20:50;93983.50;;;16.41;100.00
8334;BME280;4204;43.004;23.052;2023-08-08T05:23:18;93984.47;;;16.49;100.00
8334;BME280;4204;43.004;23.052;2023-08-08T05:25:47;93977.53;;;16.48;100.00
8334;BME280;4204;43.004;23.052;2023-08-08T05:28:15;93985.66;;;16.36;100.00
8334;BME280;4204;43.004;23.052;2023-08-08T05:30:43;93991.13;;;16.39;100.00
8334;BME280;4204;43.004;23.052;2023-08-08T05:33:10;93989.97;;;16.25;100.00
8334;BME280;4204;43.004;23.052;2023-08-08T05:35:38;93993.69;;;16.20;100.00
8334;BME280;4204;43.004;23.052;2023-08-08T05:38:05;93988.66;;;16.18;100.00
8334;BME280;4204;43.004;23.052;2023-08-08T05:40:34;93994.72;;;16.15;100.00
8334;BME280;4204;43.004;23.052;2023-08-08T05:43:04;93991.53;;;16.26;100.00
8334;BME280;4204;43.004;23.052;2023-08-08T05:45:32;93993.06;;;16.27;100.00
8334;BME280;4204;43.004;23.052;2023-08-08T05:47:59;93995.25;;;16.37;100.00
8334;BME280;4204;43.004;23.052;2023-08-08T05:50:27;94005.31;;;16.40;100.00
8334;BME280;4204;43.004;23.052;2023-08-08T05:52:55;93998.81;;;16.53;100.00
8334;BME280;4204;43.004;23.052;2023-08-08T05:55:23;93995.16;;;16.61;100.00
8334;BME280;4204;43.004;23.052;2023-08-08T05:57:50;93996.63;;;16.58;100.00
8334;BME280;4204;43.004;23.052;2023-08-08T06:00:20;93994.97;;;16.54;100.00
8334;BME280;4204;43.004;23.052;2023-08-08T06:02:47;94011.53;;;16.56;100.00
8334;BME280;4204;43.004;23.052;2023-08-08T06:05:16;94010.88;;;16.47;100.00
8334;BME280;4204;43.004;23.052;2023-08-08T06:07:44;94004.72;;;16.46;100.00
8334;BME280;4204;43.004;23.052;2023-08-08T06:10:11;94007.94;;;16.36;100.00
8334;BME280;4204;43.004;23.052;2023-08-08T06:12:39;94010.41;;;16.29;100.00
8334;BME280;4204;43.004;23.052;2023-08-08T06:15:07;94010.69;;;16.40;100.00
8334;BME280;4204;43.004;23.052;2023-08-08T06:17:37;94000.59;;;16.49;100.00
8334;BME280;4204;43.004;23.052;2023-08-08T06:20:06;94008.84;;;16.56;100.00
8334;BME280;4204;43.004;23.052;2023-08-08T06:22:34;94014.41;;;16.63;100.00
8334;BME280;4204;43.004;23.052;2023-08-08T06:25:02;94007.72;;;16.72;100.00
8334;BME280;4204;43.004;23.052;2023-08-08T06:27:30;94010.84;;;16.74;100.00
8334;BME280;4204;43.004;23.052;2023-08-08T06:29:58;94009.19;;;16.70;100.00
8334;BME280;4204;43.004;23.052;2023-08-08T06:32:25;94006.44;;;16.82;100.00
8334;BME280;4204;43.004;23.052;2023-08-08T06:34:54;94007.56;;;16.96;100.00
8334;BME280;4204;43.004;23.052;2023-08-08T06:37:22;94003.75;;;16.97;100.00
8334;BME280;4204;43.004;23.052;2023-08-08T06:39:50;93998.88;;;17.03;100.00
8334;BME280;4204;43.004;23.052;2023-08-08T06:42:17;94011.00;;;16.97;100.00
8334;BME280;4204;43.004;23.052;2023-08-08T06:44:55;94011.63;;;17.06;100.00
8334;BME280;4204;43.004;23.052;2023-08-08T06:47:23;94012.38;;;17.22;100.00
8334;BME280;4204;43.004;23.052;2023-08-08T06:49:50;94012.41;;;17.07;100.00
8334;BME280;4204;43.004;23.052;2023-08-08T06:52:20;94010.50;;;17.07;100.00
8334;BME280;4204;43.004;23.052;2023-08-08T06:54:48;94008.75;;;16.99;100.00
8334;BME280;4204;43.004;23.052;2023-08-08T06:57:16;94012.13;;;17.12;100.00
8334;BME280;4204;43.004;23.052;2023-08-08T06:59:43;94007.97;;;17.14;100.00
8334;BME280;4204;43.004;23.052;2023-08-08T07:02:13;94013.44;;;17.18;100.00
8334;BME280;4204;43.004;23.052;2023-08-08T07:04:40;94022.72;;;17.20;100.00
8334;BME280;4204;43.004;23.052;2023-08-08T07:07:08;94020.47;;;17.22;100.00
8334;BME280;4204;43.004;23.052;2023-08-08T07:09:38;94010.91;;;17.25;100.00
8334;BME280;4204;43.004;23.052;2023-08-08T07:12:06;94012.38;;;17.22;100.00
8334;BME280;4204;43.004;23.052;2023-08-08T07:14:34;94021.50;;;17.33;100.00
8334;BME280;4204;43.004;23.052;2023-08-08T07:17:02;94016.34;;;17.44;100.00
8334;BME280;4204;43.004;23.052;2023-08-08T07:19:30;94017.31;;;17.51;100.00
8334;BME280;4204;43.004;23.052;2023-08-08T07:21:57;94018.97;;;17.56;100.00
8334;BME280;4204;43.004;23.052;2023-08-08T07:24:25;94019.31;;;17.73;100.00
8334;BME280;4204;43.004;23.052;2023-08-08T07:26:57;94001.44;;;17.81;100.00
8334;BME280;4204;43.004;23.052;2023-08-08T07:29:25;94029.75;;;17.94;100.00
8334;BME280;4204;43.004;23.052;2023-08-08T07:31:53;94019.28;;;17.89;100.00
8334;BME280;4204;43.004;23.052;2023-08-08T07:34:21;94021.06;;;18.01;100.00
8334;BME280;4204;43.004;23.052;2023-08-08T07:36:49;94019.94;;;18.02;100.00
8334;BME280;4204;43.004;23.052;2023-08-08T07:39:17;94024.47;;;17.98;100.00
8334;BME280;4204;43.004;23.052;2023-08-08T07:41:45;94030.59;;;17.98;100.00
8334;BME280;4204;43.004;23.052;2023-08-08T07:44:14;94036.22;;;18.09;100.00
8334;BME280;4204;43.004;23.052;2023-08-08T07:46:42;94040.91;;;18.12;100.00
8334;BME280;4204;43.004;23.052;2023-08-08T07:49:10;94029.84;;;17.98;100.00
8334;BME280;4204;43.004;23.052;2023-08-08T07:51:38;94041.25;;;17.91;100.00
8334;BME280;4204;43.004;23.052;2023-08-08T07:54:06;94036.31;;;18.12;100.00
8334;BME280;4204;43.004;23.052;2023-08-08T07:56:35;94031.91;;;18.23;100.00
8334;BME280;4204;43.004;23.052;2023-08-08T07:59:03;94053.59;;;18.30;100.00
8334;BME280;4204;43.004;23.052;2023-08-08T08:01:33;94030.81;;;18.09;100.00
8334;BME280;4204;43.004;23.052;2023-08-08T08:04:00;94043.09;;;17.87;100.00
8334;BME280;4204;43.004;23.052;2023-08-08T08:06:29;94038.25;;;17.77;100.00
8334;BME280;4204;43.004;23.052;2023-08-08T08:08:57;94043.00;;;17.84;100.00
8334;BME280;4204;43.004;23.052;2023-08-08T08:11:24;94043.22;;;17.94;100.00
8334;BME280;4204;43.004;23.052;2023-08-08T08:13:52;94043.94;;;17.91;100.00
8334;BME280;4204;43.004;23.052;2023-08-08T08:16:20;94036.34;;;17.97;100.00
8334;BME280;4204;43.004;23.052;2023-08-08T08:18:49;94055.16;;;18.12;100.00
8334;BME280;4204;43.004;23.052;2023-08-08T08:21:17;94052.88;;;17.95;100.00
8334;BME280;4204;43.004;23.052;2023-08-08T08:23:45;94058.03;;;18.04;100.00
8334;BME280;4204;43.004;23.052;2023-08-08T08:26:13;94061.84;;;18.03;100.00
8334;BME280;4204;43.004;23.052;2023-08-08T08:28:41;94061.91;;;17.87;100.00
8334;BME280;4204;43.004;23.052;2023-08-08T08:31:09;94068.78;;;17.85;100.00
8334;BME280;4204;43.004;23.052;2023-08-08T08:33:36;94075.63;;;17.82;100.00
8334;BME280;4204;43.004;23.052;2023-08-08T08:36:06;94056.91;;;17.86;100.00
8334;BME280;4204;43.004;23.052;2023-08-08T08:38:34;94059.59;;;17.86;100.00
8334;BME280;4204;43.004;23.052;2023-08-08T08:41:02;94064.97;;;17.86;100.00
8334;BME280;4204;43.004;23.052;2023-08-08T08:43:30;94055.59;;;17.79;100.00
8334;BME280;4204;43.004;23.052;2023-08-08T08:46:00;94058.09;;;17.88;100.00
8334;BME280;4204;43.004;23.052;2023-08-08T08:48:28;94048.16;;;17.92;100.00
8334;BME280;4204;43.004;23.052;2023-08-08T08:50:56;94046.72;;;18.14;100.00
8334;BME280;4204;43.004;23.052;2023-08-08T08:53:27;94054.22;;;18.24;100.00
8334;BME280;4204;43.004;23.052;2023-08-08T08:55:56;94061.44;;;18.20;100.00
8334;BME280;4204;43.004;23.052;2023-08-08T08:58:24;94054.91;;;18.21;100.00
8334;BME280;4204;43.004;23.052;2023-08-08T09:00:53;94042.09;;;18.33;100.00
8334;BME280;4204;43.004;23.052;2023-08-08T09:03:21;94045.50;;;18.30;100.00
8334;BME280;4204;43.004;23.052;2023-08-08T09:05:50;94044.69;;;18.45;100.00
8334;BME280;4204;43.004;23.052;2023-08-08T09:08:20;94043.53;;;18.66;100.00
8334;BME280;4204;43.004;23.052;2023-08-08T09:10:50;94052.03;;;18.90;100.00
8334;BME280;4204;43.004;23.052;2023-08-08T09:13:18;94051.88;;;19.02;100.00
8334;BME280;4204;43.004;23.052;2023-08-08T09:15:47;94051.25;;;19.12;100.00
8334;BME280;4204;43.004;23.052;2023-08-08T09:18:15;94051.25;;;19.12;100.00
8334;BME280;4204;43.004;23.052;2023-08-08T09:20:47;94056.59;;;19.09;100.00
8334;BME280;4204;43.004;23.052;2023-08-08T09:23:14;94042.69;;;19.07;100.00
8334;BME280;4204;43.004;23.052;2023-08-08T09:25:42;94054.50;;;19.21;100.00
8334;BME280;4204;43.004;23.052;2023-08-08T09:28:11;94068.78;;;19.45;100.00
8334;BME280;4204;43.004;23.052;2023-08-08T09:30:41;94065.25;;;19.41;100.00
8334;BME280;4204;43.004;23.052;2023-08-08T09:33:09;94052.84;;;19.13;100.00
8334;BME280;4204;43.004;23.052;2023-08-08T09:35:38;94065.16;;;19.14;100.00
8334;BME280;4204;43.004;23.052;2023-08-08T09:38:05;94066.13;;;19.25;100.00
8334;BME280;4204;43.004;23.052;2023-08-08T09:40:34;94061.53;;;19.26;100.00
8334;BME280;4204;43.004;23.052;2023-08-08T09:43:02;94054.97;;;19.27;100.00
8334;BME280;4204;43.004;23.052;2023-08-08T09:45:37;94064.41;;;19.37;100.00
8334;BME280;4204;43.004;23.052;2023-08-08T09:48:05;94052.28;;;19.27;100.00
8334;BME280;4204;43.004;23.052;2023-08-08T09:50:35;94046.03;;;19.23;100.00
8334;BME280;4204;43.004;23.052;2023-08-08T09:53:03;94043.25;;;19.16;100.00
8334;BME280;4204;43.004;23.052;2023-08-08T09:55:32;94036.56;;;19.10;100.00
8334;BME280;4204;43.004;23.052;2023-08-08T09:58:02;94047.25;;;19.25;100.00
8334;BME280;4204;43.004;23.052;2023-08-08T10:00:30;94041.97;;;19.32;100.00
8334;BME280;4204;43.004;23.052;2023-08-08T10:03:01;94036.34;;;19.41;100.00
8334;BME280;4204;43.004;23.052;2023-08-08T10:05:30;94045.59;;;19.40;100.00
8334;BME280;4204;43.004;23.052;2023-08-08T10:07:58;94044.50;;;19.45;100.00
8334;BME280;4204;43.004;23.052;2023-08-08T10:10:25;94031.78;;;19.45;100.00
8334;BME280;4204;43.004;23.052;2023-08-08T10:12:54;94035.41;;;19.56;100.00
8334;BME280;4204;43.004;23.052;2023-08-08T10:15:25;94034.34;;;19.61;100.00
8334;BME280;4204;43.004;23.052;2023-08-08T10:17:55;94032.56;;;19.72;100.00
8334;BME280;4204;43.004;23.052;2023-08-08T10:20:25;94030.38;;;19.81;100.00
8334;BME280;4204;43.004;23.052;2023-08-08T10:22:54;94028.81;;;19.80;100.00
8334;BME280;4204;43.004;23.052;2023-08-08T10:25:25;94028.03;;;19.79;100.00
8334;BME280;4204;43.004;23.052;2023-08-08T10:28:05;94030.78;;;19.83;100.00
8334;BME280;4204;43.004;23.052;2023-08-08T10:30:42;94022.28;;;19.81;100.00
8334;BME280;4204;43.004;23.052;2023-08-08T10:33:17;94018.91;;;19.87;100.00
8334;BME280;4204;43.004;23.052;2023-08-08T10:35:58;94023.56;;;19.90;100.00
8334;BME280;4204;43.004;23.052;2023-08-08T10:38:38;94016.16;;;19.84;100.00
8334;BME280;4204;43.004;23.052;2023-08-08T10:41:09;94018.34;;;19.75;100.00
8334;BME280;4204;43.004;23.052;2023-08-08T10:43:37;94014.66;;;19.60;100.00
8334;BME280;4204;43.004;23.052;2023-08-08T10:46:05;94017.31;;;19.57;100.00
8334;BME280;4204;43.004;23.052;2023-08-08T10:48:33;94016.72;;;19.70;100.00
8334;BME280;4204;43.004;23.052;2023-08-08T10:51:02;94014.44;;;19.72;100.00
8334;BME280;4204;43.004;23.052;2023-08-08T10:53:33;94019.69;;;19.62;100.00
8334;BME280;4204;43.004;23.052;2023-08-08T10:56:02;94006.34;;;19.72;100.00
8334;BME280;4204;43.004;23.052;2023-08-08T10:58:37;94014.19;;;19.81;100.00
8334;BME280;4204;43.004;23.052;2023-08-08T11:01:05;94014.59;;;19.83;100.00
8334;BME280;4204;43.004;23.052;2023-08-08T11:03:36;94013.53;;;19.91;100.00
8334;BME280;4204;43.004;23.052;2023-08-08T11:06:07;94008.31;;;20.05;100.00
8334;BME280;4204;43.004;23.052;2023-08-08T11:08:37;94005.72;;;20.12;100.00
8334;BME280;4204;43.004;23.052;2023-08-08T11:11:05;94013.97;;;20.23;100.00
8334;BME280;4204;43.004;23.052;2023-08-08T11:13:33;94008.50;;;20.19;100.00
8334;BME280;4204;43.004;23.052;2023-08-08T11:16:01;94004.97;;;20.15;100.00
8334;BME280;4204;43.004;23.052;2023-08-08T11:18:29;94011.44;;;20.07;100.00
8334;BME280;4204;43.004;23.052;2023-08-08T11:20:57;94003.75;;;20.09;100.00
8334;BME280;4204;43.004;23.052;2023-08-08T11:23:26;93997.75;;;20.23;100.00
8334;BME280;4204;43.004;23.052;2023-08-08T11:25:54;94018.19;;;20.20;100.00
8334;BME280;4204;43.004;23.052;2023-08-08T11:28:22;94011.38;;;20.30;100.00
8334;BME280;4204;43.004;23.052;2023-08-08T11:30:50;94013.03;;;20.41;100.00
8334;BME280;4204;43.004;23.052;2023-08-08T11:33:18;94015.22;;;20.32;100.00
8334;BME280;4204;43.004;23.052;2023-08-08T11:35:46;94014.13;;;20.37;100.00
8334;BME280;4204;43.004;23.052;2023-08-08T11:38:15;94026.25;;;20.50;100.00
8334;BME280;4204;43.004;23.052;2023-08-08T11:40:46;94023.13;;;20.44;100.00
8334;BME280;4204;43.004;23.052;2023-08-08T11:43:14;94020.72;;;20.39;100.00
8334;BME280;4204;43.004;23.052;2023-08-08T11:45:42;94019.94;;;20.39;100.00
8334;BME280;4204;43.004;23.052;2023-08-08T11:48:10;94009.88;;;20.36;100.00
8334;BME280;4204;43.004;23.052;2023-08-08T11:50:38;94010.72;;;20.43;100.00
8334;BME280;4204;43.004;23.052;2023-08-08T11:53:08;94002.31;;;20.48;100.00
8334;BME280;4204;43.004;23.052;2023-08-08T11:55:36;94000.38;;;20.49;100.00
8334;BME280;4204;43.004;23.052;2023-08-08T11:58:12;94006.19;;;20.51;100.00
8334;BME280;4204;43.004;23.052;2023-08-08T12:00:42;93998.25;;;20.68;100.00
8334;BME280;4204;43.004;23.052;2023-08-08T12:03:12;93997.44;;;20.61;100.00
8334;BME280;4204;43.004;23.052;2023-08-08T12:05:47;94001.28;;;20.63;100.00
8334;BME280;4204;43.004;23.052;2023-08-08T12:08:17;93997.56;;;20.75;100.00
8334;BME280;4204;43.004;23.052;2023-08-08T12:10:47;93992.56;;;20.77;100.00
8334;BME280;4204;43.004;23.052;2023-08-08T12:13:20;93986.91;;;20.92;100.00
8334;BME280;4204;43.004;23.052;2023-08-08T12:15:47;93983.38;;;20.88;100.00
8334;BME280;4204;43.004;23.052;2023-08-08T12:18:16;93984.56;;;20.87;100.00
8334;BME280;4204;43.004;23.052;2023-08-08T12:20:44;93988.59;;;21.04;100.00
8334;BME280;4204;43.004;23.052;2023-08-08T12:23:12;93982.91;;;21.23;100.00
8334;BME280;4204;43.004;23.052;2023-08-08T12:25:42;93980.97;;;21.20;100.00
8334;BME280;4204;43.004;23.052;2023-08-08T12:28:09;93975.19;;;21.22;100.00
8334;BME280;4204;43.004;23.052;2023-08-08T12:30:38;93978.28;;;21.24;100.00
8334;BME280;4204;43.004;23.052;2023-08-08T12:33:06;93974.06;;;21.23;100.00
8334;BME280;4204;43.004;23.052;2023-08-08T12:35:34;93969.06;;;21.32;100.00
8334;BME280;4204;43.004;23.052;2023-08-08T12:38:02;93974.53;;;21.39;100.00
8334;BME280;4204;43.004;23.052;2023-08-08T12:40:30;93972.16;;;21.27;100.00
8334;BME280;4204;43.004;23.052;2023-08-08T12:42:58;93962.13;;;21.34;100.00
8334;BME280;4204;43.004;23.052;2023-08-08T12:45:26;93958.41;;;21.53;100.00
8334;BME280;4204;43.004;23.052;2023-08-08T12:47:55;93975.09;;;21.69;100.00
8334;BME280;4204;43.004;23.052;2023-08-08T12:50:26;93966.56;;;21.63;100.00
8334;BME280;4204;43.004;23.052;2023-08-08T12:52:55;93963.88;;;21.67;100.00
8334;BME280;4204;43.004;23.052;2023-08-08T12:55:24;93965.41;;;21.61;100.00
8334;BME280;4204;43.004;23.052;2023-08-08T12:57:52;93956.88;;;21.62;100.00
8334;BME280;4204;43.004;23.052;2023-08-08T13:00:20;93958.47;;;21.67;100.00
8334;BME280;4204;43.004;23.052;2023-08-08T13:02:48;93959.25;;;21.71;100.00
8334;BME280;4204;43.004;23.052;2023-08-08T13:05:17;93959.31;;;21.74;100.00
8334;BME280;4204;43.004;23.052;2023-08-08T13:07:45;93951.53;;;21.73;100.00